Norbank — PGIS — position and weather

sailwx.info

Track history (hours):
 
Tides and Currents Weather Stations Pressure Air Temp Water Temp Dewpoint Dewpoint Depression Visibility Wind Speed Wind Dir Waves Ship Positions

Norbank

Operator: P & O Ferries

Last reported at 2014-Oct-02 15:22 UTC. Time now 2014-Oct-02 16:39 UTC.
Position N 53°27' W 003°01'.

Length 167 m; draft 5.8 m.

Type: Ship (hazmat cat A). MMSI: 246213000.

Date/timePositionNaut miles runAvg speedWind from/ knotsBaromVisibWave heightAir tempDewpointWater temp
2014-Oct-02 15:22N 53°27' W 003°01'7 8.9
2014-Oct-02 14:33N 53°32' W 003°10'1818.5
2014-Oct-02 13:33N 53°31' W 003°41'1716.7
2014-Oct-02 12:32N 53°34' W 004°09'15 1.0
2014-Oct-01 22:31N 53°33' W 003°45'1918.6
2014-Oct-01 21:31N 53°31' W 003°14'9 8.9
2014-Oct-01 20:33N 53°27' W 003°01'0 0.4
2014-Oct-01 19:22N 53°27' W 003°01'0 0.0
2014-Oct-01 18:16N 53°27' W 003°01'0 0.0
2014-Oct-01 16:33N 53°27' W 003°01'0 0.4
2014-Oct-01 15:33N 53°27' W 003°01'10 9.7
2014-Oct-01 14:32N 53°31' W 003°16'1615.6
2014-Oct-01 13:32N 53°31' W 003°42'1616.4
2014-Oct-01 12:33N 53°35' W 004°09'5 0.4
2014-Sep-30 23:27N 53°33' W 004°01'1517.1
2014-Sep-30 22:33N 53°33' W 003°35'1716.8
2014-Sep-30 21:33N 53°31' W 003°07'5 5.3
2014-Sep-30 20:31N 53°27' W 003°01'0 0.3
2014-Sep-30 19:34N 53°27' W 003°01'0 0.0
2014-Sep-30 18:08N 53°27' W 003°01'0 0.0
2014-Sep-30 17:33N 53°27' W 003°01'0 0.0
2014-Sep-30 16:14N 53°27' W 003°01'0 0.6
2014-Sep-30 15:33N 53°27' W 003°01'8 7.9
2014-Sep-30 14:33N 53°31' W 003°12'1818.3
2014-Sep-30 13:33N 53°32' W 003°43'1817.8
2014-Sep-30 12:33N 53°35' W 004°12'2 0.2
2014-Sep-29 23:30N 53°33' W 004°09'1617.0
2014-Sep-29 22:33N 53°33' W 003°42'1717.3
2014-Sep-29 21:34N 53°31' W 003°13'8 8.4
2014-Sep-29 20:33N 53°27' W 003°01'0 0.4
2014-Sep-29 19:23N 53°27' W 003°01'0 0.0
2014-Sep-29 18:26N 53°27' W 003°01'0 0.0
2014-Sep-29 17:25N 53°27' W 003°01'0 0.0
2014-Sep-29 16:13N 53°27' W 003°01'0 0.0
2014-Sep-29 14:12N 53°27' W 003°01'0 0.0
2014-Sep-29 12:32N 53°27' W 003°01'0 0.0
2014-Sep-29 11:32N 53°27' W 003°01'0 0.0
2014-Sep-29 10:31N 53°27' W 003°01'0 0.0
2014-Sep-29 09:33N 53°27' W 003°01'0 0.0
2014-Sep-29 08:31N 53°27' W 003°01'0 0.0
2014-Sep-29 07:32N 53°27' W 003°01'0 0.0
2014-Sep-29 06:29N 53°27' W 003°01'0 0.0
2014-Sep-29 05:04N 53°27' W 003°01'0 0.9
2014-Sep-29 04:33N 53°27' W 003°01'7 7.4
2014-Sep-29 03:33N 53°32' W 003°11'1616.5
2014-Sep-29 02:33N 53°31' W 003°38'1616.3
2014-Sep-29 01:33N 53°34' W 004°06'15 0.6
2014-Sep-28 00:33N 53°33' W 004°30'1715.8
2014-Sep-27 23:31N 53°33' W 004°02'1515.4
2014-Sep-27 22:33N 53°33' W 003°38'1515.2
2014-Sep-27 21:33N 53°31' W 003°12'8 7.5
2014-Sep-27 20:29N 53°27' W 003°01'0 0.3
2014-Sep-27 19:11N 53°27' W 003°01'0 0.0
2014-Sep-27 16:28N 53°27' W 003°01'0 0.5
2014-Sep-27 15:27N 53°27' W 003°01'9 9.7
2014-Sep-27 14:33N 53°31' W 003°14'1717.2
2014-Sep-27 13:33N 53°31' W 003°43'3617.5
2014-Sep-27 11:28N 53°36' W 004°44'24 2.0
2014-Sep-26 23:05N 53°34' W 004°03'917.7
2014-Sep-26 22:33N 53°34' W 003°47'1717.5
2014-Sep-26 21:33N 53°32' W 003°18'1111.1
2014-Sep-26 20:33N 53°27' W 003°01'1 0.6
2014-Sep-26 19:31N 53°27' W 003°01'0 0.0
2014-Sep-26 18:25N 53°27' W 003°01'0 0.0
2014-Sep-26 17:24N 53°27' W 003°01'0 0.0
2014-Sep-26 16:18N 53°27' W 003°01'0 0.4
2014-Sep-26 15:16N 53°27' W 003°01'7 9.7
2014-Sep-26 14:33N 53°32' W 003°10'1817.7
2014-Sep-26 13:33N 53°31' W 003°39'31 2.4
2014-Sep-26 00:32N 53°34' W 004°32'1919.0
2014-Sep-25 23:33N 53°33' W 004°00'1817.9
2014-Sep-25 22:33N 53°33' W 003°30'1616.0
2014-Sep-25 21:33N 53°29' W 003°04'2 0.8
2014-Sep-25 18:33N 53°27' W 003°01'0 0.0
2014-Sep-25 17:33N 53°27' W 003°01'0 0.0
2014-Sep-25 16:32N 53°27' W 003°01'0 0.4
2014-Sep-25 15:33N 53°27' W 003°01'8 7.8
2014-Sep-25 14:33N 53°31' W 003°12'1616.1
2014-Sep-25 13:33N 53°31' W 003°39'1616.4
2014-Sep-25 12:33N 53°34' W 004°06'1 0.1
2014-Sep-24 23:24N 53°34' W 004°04'1618.4
2014-Sep-24 22:33N 53°33' W 003°38'1817.5
2014-Sep-24 21:33N 53°32' W 003°08'6 6.4
2014-Sep-24 20:33N 53°27' W 003°01'0 0.4
2014-Sep-24 19:29N 53°27' W 003°01'0 0.0
2014-Sep-24 18:04N 53°27' W 003°01'0 0.0
2014-Sep-24 16:12N 53°27' W 003°01'0 0.7
2014-Sep-24 15:33N 53°27' W 003°01'7 7.0
2014-Sep-24 14:33N 53°32' W 003°10'1717.1
2014-Sep-24 13:33N 53°31' W 003°38'1515.0
2014-Sep-24 12:33N 53°34' W 004°03'2 0.2
2014-Sep-23 23:31N 53°35' W 004°00'1818.7
2014-Sep-23 22:33N 53°34' W 003°30'1716.7
2014-Sep-23 21:33N 53°28' W 003°04'2 1.8
2014-Sep-23 20:33N 53°27' W 003°01'0 0.1
2014-Sep-23 19:31N 53°27' W 003°01'0 0.0
2014-Sep-23 17:18N 53°27' W 003°01'0 0.0
2014-Sep-23 16:23N 53°27' W 003°01'0 0.5
2014-Sep-23 15:29N 53°27' W 003°01'7 7.7
2014-Sep-23 14:33N 53°32' W 003°10'1918.6
2014-Sep-23 13:33N 53°31' W 003°41'36 2.7
2014-Sep-23 00:31N 53°33' W 004°41'1717.8
2014-Sep-22 23:33N 53°34' W 004°12'1919.3
2014-Sep-22 22:33N 53°34' W 003°40'1818.2
2014-Sep-22 21:34N 53°32' W 003°10'7 6.7
2014-Sep-22 20:33N 53°27' W 003°01'0 0.0
2014-Sep-22 19:23N 53°27' W 003°01'0 0.0
2014-Sep-22 17:28N 53°27' W 003°01'0 0.4
2014-Sep-22 16:27N 53°27' W 003°01'8 9.2
2014-Sep-22 15:33N 53°31' W 003°13'  
Track history (hours):
 
Tides and Currents Weather Stations Pressure Air Temp Water Temp Dewpoint Dewpoint Depression Visibility Wind Speed Wind Dir Waves Ship Positions

Norbank

Operator: P & O Ferries

Last reported at 2014-Oct-02 15:22 UTC. Time now 2014-Oct-02 16:39 UTC.
Position N 53°27' W 003°01'.

Length 167 m; draft 5.8 m.

Type: Ship (hazmat cat A). MMSI: 246213000.

Date/timePositionNaut miles runAvg speedWind from/ knotsBaromVisibWave heightAir tempDewpointWater temp
2014-Oct-02 15:22N 53°27' W 003°01'7 8.9
2014-Oct-02 14:33N 53°32' W 003°10'1818.5
2014-Oct-02 13:33N 53°31' W 003°41'1716.7
2014-Oct-02 12:32N 53°34' W 004°09'15 1.0
2014-Oct-01 22:31N 53°33' W 003°45'1918.6
2014-Oct-01 21:31N 53°31' W 003°14'9 8.9
2014-Oct-01 20:33N 53°27' W 003°01'0 0.4
2014-Oct-01 19:22N 53°27' W 003°01'0 0.0
2014-Oct-01 18:16N 53°27' W 003°01'0 0.0
2014-Oct-01 16:33N 53°27' W 003°01'0 0.4
2014-Oct-01 15:33N 53°27' W 003°01'10 9.7
2014-Oct-01 14:32N 53°31' W 003°16'1615.6
2014-Oct-01 13:32N 53°31' W 003°42'1616.4
2014-Oct-01 12:33N 53°35' W 004°09'5 0.4
2014-Sep-30 23:27N 53°33' W 004°01'1517.1
2014-Sep-30 22:33N 53°33' W 003°35'1716.8
2014-Sep-30 21:33N 53°31' W 003°07'5 5.3
2014-Sep-30 20:31N 53°27' W 003°01'0 0.3
2014-Sep-30 19:34N 53°27' W 003°01'0 0.0
2014-Sep-30 18:08N 53°27' W 003°01'0 0.0
2014-Sep-30 17:33N 53°27' W 003°01'0 0.0
2014-Sep-30 16:14N 53°27' W 003°01'0 0.6
2014-Sep-30 15:33N 53°27' W 003°01'8 7.9
2014-Sep-30 14:33N 53°31' W 003°12'1818.3
2014-Sep-30 13:33N 53°32' W 003°43'1817.8
2014-Sep-30 12:33N 53°35' W 004°12'2 0.2
2014-Sep-29 23:30N 53°33' W 004°09'1617.0
2014-Sep-29 22:33N 53°33' W 003°42'1717.3
2014-Sep-29 21:34N 53°31' W 003°13'8 8.4
2014-Sep-29 20:33N 53°27' W 003°01'0 0.4
2014-Sep-29 19:23N 53°27' W 003°01'0 0.0
2014-Sep-29 18:26N 53°27' W 003°01'0 0.0
2014-Sep-29 17:25N 53°27' W 003°01'0 0.0
2014-Sep-29 16:13N 53°27' W 003°01'0 0.0
2014-Sep-29 14:12N 53°27' W 003°01'0 0.0
2014-Sep-29 12:32N 53°27' W 003°01'0 0.0
2014-Sep-29 11:32N 53°27' W 003°01'0 0.0
2014-Sep-29 10:31N 53°27' W 003°01'0 0.0
2014-Sep-29 09:33N 53°27' W 003°01'0 0.0
2014-Sep-29 08:31N 53°27' W 003°01'0 0.0
2014-Sep-29 07:32N 53°27' W 003°01'0 0.0
2014-Sep-29 06:29N 53°27' W 003°01'0 0.0
2014-Sep-29 05:04N 53°27' W 003°01'0 0.9
2014-Sep-29 04:33N 53°27' W 003°01'7 7.4
2014-Sep-29 03:33N 53°32' W 003°11'1616.5
2014-Sep-29 02:33N 53°31' W 003°38'1616.3
2014-Sep-29 01:33N 53°34' W 004°06'15 0.6
2014-Sep-28 00:33N 53°33' W 004°30'1715.8
2014-Sep-27 23:31N 53°33' W 004°02'1515.4
2014-Sep-27 22:33N 53°33' W 003°38'1515.2
2014-Sep-27 21:33N 53°31' W 003°12'8 7.5
2014-Sep-27 20:29N 53°27' W 003°01'0 0.3
2014-Sep-27 19:11N 53°27' W 003°01'0 0.0
2014-Sep-27 16:28N 53°27' W 003°01'0 0.5
2014-Sep-27 15:27N 53°27' W 003°01'9 9.7
2014-Sep-27 14:33N 53°31' W 003°14'1717.2
2014-Sep-27 13:33N 53°31' W 003°43'3617.5
2014-Sep-27 11:28N 53°36' W 004°44'24 2.0
2014-Sep-26 23:05N 53°34' W 004°03'917.7
2014-Sep-26 22:33N 53°34' W 003°47'1717.5
2014-Sep-26 21:33N 53°32' W 003°18'1111.1
2014-Sep-26 20:33N 53°27' W 003°01'1 0.6
2014-Sep-26 19:31N 53°27' W 003°01'0 0.0
2014-Sep-26 18:25N 53°27' W 003°01'0 0.0
2014-Sep-26 17:24N 53°27' W 003°01'0 0.0
2014-Sep-26 16:18N 53°27' W 003°01'0 0.4
2014-Sep-26 15:16N 53°27' W 003°01'7 9.7
2014-Sep-26 14:33N 53°32' W 003°10'1817.7
2014-Sep-26 13:33N 53°31' W 003°39'31 2.4
2014-Sep-26 00:32N 53°34' W 004°32'1919.0
2014-Sep-25 23:33N 53°33' W 004°00'1817.9
2014-Sep-25 22:33N 53°33' W 003°30'1616.0
2014-Sep-25 21:33N 53°29' W 003°04'2 0.8
2014-Sep-25 18:33N 53°27' W 003°01'0 0.0
2014-Sep-25 17:33N 53°27' W 003°01'0 0.0
2014-Sep-25 16:32N 53°27' W 003°01'0 0.4
2014-Sep-25 15:33N 53°27' W 003°01'8 7.8
2014-Sep-25 14:33N 53°31' W 003°12'1616.1
2014-Sep-25 13:33N 53°31' W 003°39'1616.4
2014-Sep-25 12:33N 53°34' W 004°06'1 0.1
2014-Sep-24 23:24N 53°34' W 004°04'1618.4
2014-Sep-24 22:33N 53°33' W 003°38'1817.5
2014-Sep-24 21:33N 53°32' W 003°08'6 6.4
2014-Sep-24 20:33N 53°27' W 003°01'0 0.4
2014-Sep-24 19:29N 53°27' W 003°01'0 0.0
2014-Sep-24 18:04N 53°27' W 003°01'0 0.0
2014-Sep-24 16:12N 53°27' W 003°01'0 0.7
2014-Sep-24 15:33N 53°27' W 003°01'7 7.0
2014-Sep-24 14:33N 53°32' W 003°10'1717.1
2014-Sep-24 13:33N 53°31' W 003°38'1515.0
2014-Sep-24 12:33N 53°34' W 004°03'2 0.2
2014-Sep-23 23:31N 53°35' W 004°00'1818.7
2014-Sep-23 22:33N 53°34' W 003°30'1716.7
2014-Sep-23 21:33N 53°28' W 003°04'2 1.8
2014-Sep-23 20:33N 53°27' W 003°01'0 0.1
2014-Sep-23 19:31N 53°27' W 003°01'0 0.0
2014-Sep-23 17:18N 53°27' W 003°01'0 0.0
2014-Sep-23 16:23N 53°27' W 003°01'0 0.5
2014-Sep-23 15:29N 53°27' W 003°01'7 7.7
2014-Sep-23 14:33N 53°32' W 003°10'1918.6
2014-Sep-23 13:33N 53°31' W 003°41'36 2.7
2014-Sep-23 00:31N 53°33' W 004°41'1717.8
2014-Sep-22 23:33N 53°34' W 004°12'1919.3
2014-Sep-22 22:33N 53°34' W 003°40'1818.2
2014-Sep-22 21:34N 53°32' W 003°10'7 6.7
2014-Sep-22 20:33N 53°27' W 003°01'0 0.0
2014-Sep-22 19:23N 53°27' W 003°01'0 0.0
2014-Sep-22 17:28N 53°27' W 003°01'0 0.4
2014-Sep-22 16:27N 53°27' W 003°01'8 9.2
2014-Sep-22 15:33N 53°31' W 003°13'  

Dump ship's entire track history